sensor_id;sensor_type;location;lat;lon;timestamp;temperature;humidity
27781;DHT22;15167;1.318;103.762;2023-03-31T00:00:44;26.50;63.90
27781;DHT22;15167;1.318;103.762;2023-03-31T00:03:11;26.50;57.60
27781;DHT22;15167;1.318;103.762;2023-03-31T00:05:38;26.50;48.70
27781;DHT22;15167;1.318;103.762;2023-03-31T00:08:04;26.60;41.40
27781;DHT22;15167;1.318;103.762;2023-03-31T00:10:32;26.60;39.00
27781;DHT22;15167;1.318;103.762;2023-03-31T00:12:58;26.70;42.40
27781;DHT22;15167;1.318;103.762;2023-03-31T00:15:25;26.70;33.10
27781;DHT22;15167;1.318;103.762;2023-03-31T00:17:52;26.70;28.00
27781;DHT22;15167;1.318;103.762;2023-03-31T00:20:18;26.80;22.70
27781;DHT22;15167;1.318;103.762;2023-03-31T00:22:44;26.80;16.80
27781;DHT22;15167;1.318;103.762;2023-03-31T00:25:13;26.90;13.90
27781;DHT22;15167;1.318;103.762;2023-03-31T00:27:43;27.00;12.70
27781;DHT22;15167;1.318;103.762;2023-03-31T00:30:10;27.00;8.20
27781;DHT22;15167;1.318;103.762;2023-03-31T00:32:36;27.10;4.60
27781;DHT22;15167;1.318;103.762;2023-03-31T00:35:03;27.20;3.30
27781;DHT22;15167;1.318;103.762;2023-03-31T00:37:29;27.20;1.00
27781;DHT22;15167;1.318;103.762;2023-03-31T00:39:58;27.30;1.00
27781;DHT22;15167;1.318;103.762;2023-03-31T00:42:24;27.30;1.00
27781;DHT22;15167;1.318;103.762;2023-03-31T00:47:34;27.50;1.00
27781;DHT22;15167;1.318;103.762;2023-03-31T00:50:00;27.50;1.00
27781;DHT22;15167;1.318;103.762;2023-03-31T00:52:29;27.50;1.00
27781;DHT22;15167;1.318;103.762;2023-03-31T00:55:02;27.90;1.00
27781;DHT22;15167;1.318;103.762;2023-03-31T00:57:29;27.60;1.00
27781;DHT22;15167;1.318;103.762;2023-03-31T00:59:58;27.70;1.00
27781;DHT22;15167;1.318;103.762;2023-03-31T01:02:27;27.80;1.00
27781;DHT22;15167;1.318;103.762;2023-03-31T01:04:55;27.80;1.00
27781;DHT22;15167;1.318;103.762;2023-03-31T01:07:42;27.90;1.00
27781;DHT22;15167;1.318;103.762;2023-03-31T01:10:09;27.90;1.00
27781;DHT22;15167;1.318;103.762;2023-03-31T01:12:36;28.00;1.00
27781;DHT22;15167;1.318;103.762;2023-03-31T01:15:03;28.10;1.00
27781;DHT22;15167;1.318;103.762;2023-03-31T01:17:29;28.10;1.00
27781;DHT22;15167;1.318;103.762;2023-03-31T01:22:27;28.30;1.00
27781;DHT22;15167;1.318;103.762;2023-03-31T01:32:49;28.50;1.00
27781;DHT22;15167;1.318;103.762;2023-03-31T01:48:15;28.60;1.00
27781;DHT22;15167;1.318;103.762;2023-03-31T01:50:47;28.70;1.00
27781;DHT22;15167;1.318;103.762;2023-03-31T01:53:19;28.80;1.00
27781;DHT22;15167;1.318;103.762;2023-03-31T01:55:58;28.80;1.00
27781;DHT22;15167;1.318;103.762;2023-03-31T01:58:34;29.40;1.00
27781;DHT22;15167;1.318;103.762;2023-03-31T02:01:13;29.00;1.00
27781;DHT22;15167;1.318;103.762;2023-03-31T02:03:43;29.20;1.00
27781;DHT22;15167;1.318;103.762;2023-03-31T02:06:12;29.40;1.00
27781;DHT22;15167;1.318;103.762;2023-03-31T02:08:42;29.30;1.00
27781;DHT22;15167;1.318;103.762;2023-03-31T02:11:09;29.50;1.00
27781;DHT22;15167;1.318;103.762;2023-03-31T02:13:37;29.70;1.00
27781;DHT22;15167;1.318;103.762;2023-03-31T02:16:07;29.80;1.00
27781;DHT22;15167;1.318;103.762;2023-03-31T02:18:35;29.80;1.00
27781;DHT22;15167;1.318;103.762;2023-03-31T02:21:02;29.70;1.00
27781;DHT22;15167;1.318;103.762;2023-03-31T02:23:31;29.70;1.00
27781;DHT22;15167;1.318;103.762;2023-03-31T02:26:04;29.40;1.00
27781;DHT22;15167;1.318;103.762;2023-03-31T02:28:33;29.40;1.00
27781;DHT22;15167;1.318;103.762;2023-03-31T02:33:43;29.40;1.00
27781;DHT22;15167;1.318;103.762;2023-03-31T02:36:09;29.50;1.00
27781;DHT22;15167;1.318;103.762;2023-03-31T02:38:37;29.60;1.00
27781;DHT22;15167;1.318;103.762;2023-03-31T02:41:04;29.60;1.00
27781;DHT22;15167;1.318;103.762;2023-03-31T02:43:31;29.70;1.00
27781;DHT22;15167;1.318;103.762;2023-03-31T02:45:57;29.60;1.00
27781;DHT22;15167;1.318;103.762;2023-03-31T02:58:23;29.80;1.00
27781;DHT22;15167;1.318;103.762;2023-03-31T03:03:40;29.80;1.00
27781;DHT22;15167;1.318;103.762;2023-03-31T03:06:15;29.70;99.90
27781;DHT22;15167;1.318;103.762;2023-03-31T03:09:00;29.70;99.90
27781;DHT22;15167;1.318;103.762;2023-03-31T03:16:43;29.60;99.90
27781;DHT22;15167;1.318;103.762;2023-03-31T03:19:16;29.60;99.90
27781;DHT22;15167;1.318;103.762;2023-03-31T03:21:42;29.60;99.90
27781;DHT22;15167;1.318;103.762;2023-03-31T03:24:10;29.60;99.90
27781;DHT22;15167;1.318;103.762;2023-03-31T03:26:36;29.60;99.90
27781;DHT22;15167;1.318;103.762;2023-03-31T03:29:02;29.50;99.90
27781;DHT22;15167;1.318;103.762;2023-03-31T03:31:28;29.50;99.90
27781;DHT22;15167;1.318;103.762;2023-03-31T03:33:55;29.60;99.90
27781;DHT22;15167;1.318;103.762;2023-03-31T03:36:21;29.70;99.90
27781;DHT22;15167;1.318;103.762;2023-03-31T03:38:48;29.80;99.90
27781;DHT22;15167;1.318;103.762;2023-03-31T03:41:14;29.80;99.90
27781;DHT22;15167;1.318;103.762;2023-03-31T03:43:40;29.80;99.90
27781;DHT22;15167;1.318;103.762;2023-03-31T03:46:06;29.90;99.90
27781;DHT22;15167;1.318;103.762;2023-03-31T03:48:32;30.20;99.90
27781;DHT22;15167;1.318;103.762;2023-03-31T03:50:59;30.30;99.90
27781;DHT22;15167;1.318;103.762;2023-03-31T03:53:25;30.40;99.90
27781;DHT22;15167;1.318;103.762;2023-03-31T03:55:51;30.50;99.90
27781;DHT22;15167;1.318;103.762;2023-03-31T03:58:17;30.50;99.90
27781;DHT22;15167;1.318;103.762;2023-03-31T04:00:44;30.50;99.90
27781;DHT22;15167;1.318;103.762;2023-03-31T04:03:11;30.60;99.90
27781;DHT22;15167;1.318;103.762;2023-03-31T04:05:37;30.60;99.90
27781;DHT22;15167;1.318;103.762;2023-03-31T04:08:03;30.70;99.90
27781;DHT22;15167;1.318;103.762;2023-03-31T04:10:30;30.70;99.90
27781;DHT22;15167;1.318;103.762;2023-03-31T04:12:56;30.70;99.90
27781;DHT22;15167;1.318;103.762;2023-03-31T04:15:23;30.60;99.90
27781;DHT22;15167;1.318;103.762;2023-03-31T04:17:49;30.60;99.90
27781;DHT22;15167;1.318;103.762;2023-03-31T04:20:19;30.70;99.90
27781;DHT22;15167;1.318;103.762;2023-03-31T04:22:46;30.70;99.90
27781;DHT22;15167;1.318;103.762;2023-03-31T04:25:15;30.70;99.90
27781;DHT22;15167;1.318;103.762;2023-03-31T04:27:42;30.70;99.90
27781;DHT22;15167;1.318;103.762;2023-03-31T04:30:20;30.70;99.90
27781;DHT22;15167;1.318;103.762;2023-03-31T04:32:50;30.90;99.90
27781;DHT22;15167;1.318;103.762;2023-03-31T04:35:18;31.10;99.90
27781;DHT22;15167;1.318;103.762;2023-03-31T04:37:46;31.20;99.90
27781;DHT22;15167;1.318;103.762;2023-03-31T04:40:12;31.30;99.90
27781;DHT22;15167;1.318;103.762;2023-03-31T04:42:38;31.40;99.90
27781;DHT22;15167;1.318;103.762;2023-03-31T04:45:04;31.40;99.90
27781;DHT22;15167;1.318;103.762;2023-03-31T04:47:30;31.50;99.90
27781;DHT22;15167;1.318;103.762;2023-03-31T04:49:57;31.50;99.90
27781;DHT22;15167;1.318;103.762;2023-03-31T04:52:23;31.40;99.90
27781;DHT22;15167;1.318;103.762;2023-03-31T04:54:49;31.40;99.90
27781;DHT22;15167;1.318;103.762;2023-03-31T04:57:15;31.50;99.90
27781;DHT22;15167;1.318;103.762;2023-03-31T04:59:41;31.50;99.90
27781;DHT22;15167;1.318;103.762;2023-03-31T05:02:07;31.50;99.90
27781;DHT22;15167;1.318;103.762;2023-03-31T05:04:33;31.50;99.90
27781;DHT22;15167;1.318;103.762;2023-03-31T05:07:00;31.50;99.90
27781;DHT22;15167;1.318;103.762;2023-03-31T05:09:26;31.40;99.90
27781;DHT22;15167;1.318;103.762;2023-03-31T05:11:52;31.20;99.90
27781;DHT22;15167;1.318;103.762;2023-03-31T05:14:18;31.00;99.90
27781;DHT22;15167;1.318;103.762;2023-03-31T05:16:45;31.00;99.90
27781;DHT22;15167;1.318;103.762;2023-03-31T05:19:11;31.00;99.90
27781;DHT22;15167;1.318;103.762;2023-03-31T05:21:37;30.90;93.80
27781;DHT22;15167;1.318;103.762;2023-03-31T05:24:03;31.00;7.60
27781;DHT22;15167;1.318;103.762;2023-03-31T05:26:29;31.00;70.00
27781;DHT22;15167;1.318;103.762;2023-03-31T05:28:56;31.10;91.70
27781;DHT22;15167;1.318;103.762;2023-03-31T05:31:22;31.20;93.20
27781;DHT22;15167;1.318;103.762;2023-03-31T05:33:48;31.00;99.90
27781;DHT22;15167;1.318;103.762;2023-03-31T05:36:15;30.90;99.90
27781;DHT22;15167;1.318;103.762;2023-03-31T05:38:41;31.10;99.90
27781;DHT22;15167;1.318;103.762;2023-03-31T05:41:08;31.20;99.90
27781;DHT22;15167;1.318;103.762;2023-03-31T05:43:35;31.30;99.90
27781;DHT22;15167;1.318;103.762;2023-03-31T05:46:02;31.50;99.90
27781;DHT22;15167;1.318;103.762;2023-03-31T05:48:28;31.60;99.90
27781;DHT22;15167;1.318;103.762;2023-03-31T05:50:55;31.80;99.90
27781;DHT22;15167;1.318;103.762;2023-03-31T05:53:22;31.90;85.80
27781;DHT22;15167;1.318;103.762;2023-03-31T05:55:48;32.10;51.80
27781;DHT22;15167;1.318;103.762;2023-03-31T05:58:15;32.20;69.30
27781;DHT22;15167;1.318;103.762;2023-03-31T06:00:41;32.30;43.30
27781;DHT22;15167;1.318;103.762;2023-03-31T06:03:09;32.40;1.00
27781;DHT22;15167;1.318;103.762;2023-03-31T06:05:35;32.50;1.00
27781;DHT22;15167;1.318;103.762;2023-03-31T06:08:01;32.60;1.00
27781;DHT22;15167;1.318;103.762;2023-03-31T06:10:28;32.80;1.00
27781;DHT22;15167;1.318;103.762;2023-03-31T06:12:54;32.90;99.90
27781;DHT22;15167;1.318;103.762;2023-03-31T06:15:20;32.90;99.90
27781;DHT22;15167;1.318;103.762;2023-03-31T06:17:46;32.90;99.90
27781;DHT22;15167;1.318;103.762;2023-03-31T06:20:12;33.00;99.90
27781;DHT22;15167;1.318;103.762;2023-03-31T06:22:38;33.10;99.90
27781;DHT22;15167;1.318;103.762;2023-03-31T06:25:04;33.20;99.90
27781;DHT22;15167;1.318;103.762;2023-03-31T06:27:31;33.20;99.90
27781;DHT22;15167;1.318;103.762;2023-03-31T06:29:57;33.30;99.90
27781;DHT22;15167;1.318;103.762;2023-03-31T06:32:23;33.40;1.00
27781;DHT22;15167;1.318;103.762;2023-03-31T06:34:50;33.40;1.00
27781;DHT22;15167;1.318;103.762;2023-03-31T06:37:16;33.40;1.00
27781;DHT22;15167;1.318;103.762;2023-03-31T06:39:42;33.40;1.00
27781;DHT22;15167;1.318;103.762;2023-03-31T06:42:09;33.50;32.90
27781;DHT22;15167;1.318;103.762;2023-03-31T06:44:35;33.60;31.60
27781;DHT22;15167;1.318;103.762;2023-03-31T06:47:01;33.60;99.90
27781;DHT22;15167;1.318;103.762;2023-03-31T06:49:27;33.60;99.90
27781;DHT22;15167;1.318;103.762;2023-03-31T06:51:53;33.70;1.00
27781;DHT22;15167;1.318;103.762;2023-03-31T06:54:19;33.70;1.00
27781;DHT22;15167;1.318;103.762;2023-03-31T06:56:45;33.60;6.80
27781;DHT22;15167;1.318;103.762;2023-03-31T06:59:12;33.30;30.00
27781;DHT22;15167;1.318;103.762;2023-03-31T07:01:38;33.60;22.70
27781;DHT22;15167;1.318;103.762;2023-03-31T07:04:06;33.50;46.90
27781;DHT22;15167;1.318;103.762;2023-03-31T07:06:33;33.40;57.20
27781;DHT22;15167;1.318;103.762;2023-03-31T07:08:59;33.30;80.30
27781;DHT22;15167;1.318;103.762;2023-03-31T07:11:25;33.20;99.90
27781;DHT22;15167;1.318;103.762;2023-03-31T07:13:51;33.30;99.90
27781;DHT22;15167;1.318;103.762;2023-03-31T07:16:17;33.30;90.50
27781;DHT22;15167;1.318;103.762;2023-03-31T07:18:43;33.30;48.70
27781;DHT22;15167;1.318;103.762;2023-03-31T07:21:09;33.30;11.90
27781;DHT22;15167;1.318;103.762;2023-03-31T07:23:36;33.20;2.10
27781;DHT22;15167;1.318;103.762;2023-03-31T07:26:02;33.20;1.00
27781;DHT22;15167;1.318;103.762;2023-03-31T07:28:28;33.00;1.00
27781;DHT22;15167;1.318;103.762;2023-03-31T07:30:55;32.80;1.00
27781;DHT22;15167;1.318;103.762;2023-03-31T07:33:21;32.50;3.30
27781;DHT22;15167;1.318;103.762;2023-03-31T07:35:47;32.00;25.70
27781;DHT22;15167;1.318;103.762;2023-03-31T07:38:13;31.50;64.00
27781;DHT22;15167;1.318;103.762;2023-03-31T07:40:39;31.10;99.40
27781;DHT22;15167;1.318;103.762;2023-03-31T07:43:06;31.00;99.90
27781;DHT22;15167;1.318;103.762;2023-03-31T07:45:32;30.80;99.90
27781;DHT22;15167;1.318;103.762;2023-03-31T07:47:58;30.70;93.00
27781;DHT22;15167;1.318;103.762;2023-03-31T07:50:25;30.30;83.60
27781;DHT22;15167;1.318;103.762;2023-03-31T07:52:51;30.00;99.90
27781;DHT22;15167;1.318;103.762;2023-03-31T07:55:17;29.80;99.90
27781;DHT22;15167;1.318;103.762;2023-03-31T07:57:44;29.50;99.90
27781;DHT22;15167;1.318;103.762;2023-03-31T08:00:11;29.30;99.90
27781;DHT22;15167;1.318;103.762;2023-03-31T08:02:38;29.10;99.90
27781;DHT22;15167;1.318;103.762;2023-03-31T08:05:05;29.00;99.90
27781;DHT22;15167;1.318;103.762;2023-03-31T08:07:33;29.00;99.90
27781;DHT22;15167;1.318;103.762;2023-03-31T08:09:59;29.00;99.90
27781;DHT22;15167;1.318;103.762;2023-03-31T08:12:25;29.00;99.90
27781;DHT22;15167;1.318;103.762;2023-03-31T08:14:51;29.10;99.90
27781;DHT22;15167;1.318;103.762;2023-03-31T08:17:17;29.10;99.90
27781;DHT22;15167;1.318;103.762;2023-03-31T08:19:43;29.00;99.90
27781;DHT22;15167;1.318;103.762;2023-03-31T08:22:10;29.10;99.90
27781;DHT22;15167;1.318;103.762;2023-03-31T08:24:36;29.10;99.90
27781;DHT22;15167;1.318;103.762;2023-03-31T08:27:02;29.10;99.90
27781;DHT22;15167;1.318;103.762;2023-03-31T08:29:28;29.10;99.90
27781;DHT22;15167;1.318;103.762;2023-03-31T08:31:54;29.10;99.90
27781;DHT22;15167;1.318;103.762;2023-03-31T08:34:20;29.00;99.90
27781;DHT22;15167;1.318;103.762;2023-03-31T08:36:47;28.90;99.90
27781;DHT22;15167;1.318;103.762;2023-03-31T08:39:13;28.90;99.90
27781;DHT22;15167;1.318;103.762;2023-03-31T08:41:56;28.90;99.90
27781;DHT22;15167;1.318;103.762;2023-03-31T08:46:49;28.90;99.90
27781;DHT22;15167;1.318;103.762;2023-03-31T08:49:17;28.80;99.90
27781;DHT22;15167;1.318;103.762;2023-03-31T08:51:49;28.90;99.90
27781;DHT22;15167;1.318;103.762;2023-03-31T08:54:24;28.90;99.90
27781;DHT22;15167;1.318;103.762;2023-03-31T08:56:54;28.90;99.90
27781;DHT22;15167;1.318;103.762;2023-03-31T08:59:28;28.80;99.90
27781;DHT22;15167;1.318;103.762;2023-03-31T09:02:09;28.40;99.90
27781;DHT22;15167;1.318;103.762;2023-03-31T09:12:18;27.60;1.00
27781;DHT22;15167;1.318;103.762;2023-03-31T09:19:47;27.80;1.00
27781;DHT22;15167;1.318;103.762;2023-03-31T09:22:32;27.70;1.00
27781;DHT22;15167;1.318;103.762;2023-03-31T09:27:25;27.80;1.00
27781;DHT22;15167;1.318;103.762;2023-03-31T09:30:12;27.80;4.90
27781;DHT22;15167;1.318;103.762;2023-03-31T09:32:40;27.60;1.00
27781;DHT22;15167;1.318;103.762;2023-03-31T09:35:24;27.40;9.60
27781;DHT22;15167;1.318;103.762;2023-03-31T09:37:51;27.40;15.20
27781;DHT22;15167;1.318;103.762;2023-03-31T09:40:27;27.40;12.90
27781;DHT22;15167;1.318;103.762;2023-03-31T09:43:01;27.40;9.90
27781;DHT22;15167;1.318;103.762;2023-03-31T09:45:28;27.50;22.20
27781;DHT22;15167;1.318;103.762;2023-03-31T09:48:00;27.40;19.20
27781;DHT22;15167;1.318;103.762;2023-03-31T09:50:26;27.40;5.70
27781;DHT22;15167;1.318;103.762;2023-03-31T09:52:58;27.50;2.80
27781;DHT22;15167;1.318;103.762;2023-03-31T09:55:32;27.30;23.80
27781;DHT22;15167;1.318;103.762;2023-03-31T09:58:04;26.60;82.90
27781;DHT22;15167;1.318;103.762;2023-03-31T10:00:32;26.10;99.90
27781;DHT22;15167;1.318;103.762;2023-03-31T10:03:02;26.00;99.90
27781;DHT22;15167;1.318;103.762;2023-03-31T10:05:33;25.90;99.90
27781;DHT22;15167;1.318;103.762;2023-03-31T10:13:13;26.00;99.90
27781;DHT22;15167;1.318;103.762;2023-03-31T10:15:40;25.90;99.90
27781;DHT22;15167;1.318;103.762;2023-03-31T10:18:13;25.70;99.90
27781;DHT22;15167;1.318;103.762;2023-03-31T10:20:43;25.80;99.90
27781;DHT22;15167;1.318;103.762;2023-03-31T10:23:16;25.90;99.90
27781;DHT22;15167;1.318;103.762;2023-03-31T10:25:43;26.00;99.90
27781;DHT22;15167;1.318;103.762;2023-03-31T10:28:12;26.10;99.90
27781;DHT22;15167;1.318;103.762;2023-03-31T10:30:41;26.30;99.90
27781;DHT22;15167;1.318;103.762;2023-03-31T10:33:12;26.30;99.90
27781;DHT22;15167;1.318;103.762;2023-03-31T10:35:42;26.30;99.90
27781;DHT22;15167;1.318;103.762;2023-03-31T10:38:13;26.30;99.90
27781;DHT22;15167;1.318;103.762;2023-03-31T10:40:42;26.40;99.90
27781;DHT22;15167;1.318;103.762;2023-03-31T10:43:19;26.40;99.90
27781;DHT22;15167;1.318;103.762;2023-03-31T10:45:55;26.40;99.90
27781;DHT22;15167;1.318;103.762;2023-03-31T10:48:24;26.60;99.90
27781;DHT22;15167;1.318;103.762;2023-03-31T10:50:51;26.60;99.90
27781;DHT22;15167;1.318;103.762;2023-03-31T10:53:17;26.70;99.90
27781;DHT22;15167;1.318;103.762;2023-03-31T10:59:02;26.90;99.90
27781;DHT22;15167;1.318;103.762;2023-03-31T11:06:26;27.00;99.90
27781;DHT22;15167;1.318;103.762;2023-03-31T11:11:56;26.80;99.90
27781;DHT22;15167;1.318;103.762;2023-03-31T11:14:30;26.60;99.90
27781;DHT22;15167;1.318;103.762;2023-03-31T11:17:07;26.40;99.90
27781;DHT22;15167;1.318;103.762;2023-03-31T11:19:54;26.40;99.90
27781;DHT22;15167;1.318;103.762;2023-03-31T11:22:56;26.30;99.90
